SBFL/FLN METAR and TAF weather

Enter ICAO airport designator
Station Type Date Time Source
SBFL METAR 2022/06/27 09:00 UTC NOAA

SBFL 270900Z 03006KT 9999 SCT025 BKN049 15/13 Q1022


Station Type Date Time Source
SBFL Decoded METAR 2022/06/27 09:00 UTC NOAA

Florianopolis Aeroporto , Brazil (SBFL) 27-40S 048-33W 5M
Jun 27, 2022 - 05:00 AM EDT / 2022.06.27 0900 UTC
Wind: from the NNE (030 degrees) at 7 MPH (6 KT):0
Visibility: greater than 7 mile(s):0
Sky conditions: mostly cloudy
Temperature: 59 F (15 C)
Dew Point: 55 F (13 C)
Relative Humidity: 87%
Pressure (altimeter): 30.18 in. Hg (1022 hPa)
ob: SBFL 270900Z 03006KT 9999 SCT025 BKN049 15/13 Q1022
cycle: 9

Station Type Date Time Source
SBFL TAF 2022/06/27 12:12 UTC NOAA

TAF TAF SBFL 271000Z 2712/2812 31005KT 9999 BKN017 TX20/2717Z TN13/2807Z
BECMG 2714/2716 36012KT BKN023
BECMG 2722/2724 35008KT PROB30 2804/2806 BKN012
RMK PEM

Example: see airport list